sensor_id;sensor_type;location;lat;lon;timestamp;P1;durP1;ratioP1;P2;durP2;ratioP2
73850;SDS011;62190;51.548;5.688;2023-10-31T00:00:02;8.28;;;3.75;;
73850;SDS011;62190;51.548;5.688;2023-10-31T00:02:30;10.10;;;4.37;;
73850;SDS011;62190;51.548;5.688;2023-10-31T00:04:59;7.83;;;5.08;;
73850;SDS011;62190;51.548;5.688;2023-10-31T00:07:28;17.77;;;6.97;;
73850;SDS011;62190;51.548;5.688;2023-10-31T00:09:55;17.12;;;8.33;;
73850;SDS011;62190;51.548;5.688;2023-10-31T00:12:22;11.97;;;7.17;;
73850;SDS011;62190;51.548;5.688;2023-10-31T00:14:50;16.02;;;9.13;;
73850;SDS011;62190;51.548;5.688;2023-10-31T00:17:17;16.27;;;8.65;;
73850;SDS011;62190;51.548;5.688;2023-10-31T00:19:44;16.37;;;10.38;;
73850;SDS011;62190;51.548;5.688;2023-10-31T00:22:12;18.48;;;10.65;;
73850;SDS011;62190;51.548;5.688;2023-10-31T00:24:39;18.10;;;10.72;;
73850;SDS011;62190;51.548;5.688;2023-10-31T00:27:06;18.42;;;11.78;;
73850;SDS011;62190;51.548;5.688;2023-10-31T00:29:34;20.27;;;11.90;;
73850;SDS011;62190;51.548;5.688;2023-10-31T00:32:22;25.70;;;12.43;;
73850;SDS011;62190;51.548;5.688;2023-10-31T00:34:51;19.35;;;11.18;;
73850;SDS011;62190;51.548;5.688;2023-10-31T00:37:18;19.30;;;11.40;;
73850;SDS011;62190;51.548;5.688;2023-10-31T00:39:45;23.55;;;11.28;;
73850;SDS011;62190;51.548;5.688;2023-10-31T00:42:14;24.67;;;10.85;;
73850;SDS011;62190;51.548;5.688;2023-10-31T00:44:42;16.87;;;9.25;;
73850;SDS011;62190;51.548;5.688;2023-10-31T00:47:10;14.05;;;9.50;;
73850;SDS011;62190;51.548;5.688;2023-10-31T00:49:38;16.42;;;9.15;;
73850;SDS011;62190;51.548;5.688;2023-10-31T00:52:07;13.70;;;7.35;;
73850;SDS011;62190;51.548;5.688;2023-10-31T00:54:36;13.72;;;7.40;;
73850;SDS011;62190;51.548;5.688;2023-10-31T00:57:03;13.03;;;6.37;;
73850;SDS011;62190;51.548;5.688;2023-10-31T00:59:32;11.65;;;5.53;;
73850;SDS011;62190;51.548;5.688;2023-10-31T01:01:59;9.90;;;5.42;;
73850;SDS011;62190;51.548;5.688;2023-10-31T01:04:26;7.60;;;4.65;;
73850;SDS011;62190;51.548;5.688;2023-10-31T01:06:54;9.08;;;4.30;;
73850;SDS011;62190;51.548;5.688;2023-10-31T01:09:21;6.67;;;3.60;;
73850;SDS011;62190;51.548;5.688;2023-10-31T01:11:49;9.40;;;4.15;;
73850;SDS011;62190;51.548;5.688;2023-10-31T01:14:16;12.13;;;4.10;;
73850;SDS011;62190;51.548;5.688;2023-10-31T01:16:43;6.62;;;3.72;;
73850;SDS011;62190;51.548;5.688;2023-10-31T01:19:11;8.13;;;4.58;;
73850;SDS011;62190;51.548;5.688;2023-10-31T01:21:38;6.15;;;3.92;;
73850;SDS011;62190;51.548;5.688;2023-10-31T01:24:05;7.08;;;4.37;;
73850;SDS011;62190;51.548;5.688;2023-10-31T01:26:33;8.50;;;3.50;;
73850;SDS011;62190;51.548;5.688;2023-10-31T01:29:01;10.72;;;4.08;;
73850;SDS011;62190;51.548;5.688;2023-10-31T01:31:30;7.08;;;4.33;;
73850;SDS011;62190;51.548;5.688;2023-10-31T01:33:58;6.30;;;3.75;;
73850;SDS011;62190;51.548;5.688;2023-10-31T01:36:26;9.05;;;4.58;;
73850;SDS011;62190;51.548;5.688;2023-10-31T01:38:53;10.98;;;4.75;;
73850;SDS011;62190;51.548;5.688;2023-10-31T01:41:20;14.63;;;5.42;;
73850;SDS011;62190;51.548;5.688;2023-10-31T01:43:48;16.00;;;7.83;;
73850;SDS011;62190;51.548;5.688;2023-10-31T01:46:15;16.67;;;7.47;;
73850;SDS011;62190;51.548;5.688;2023-10-31T01:48:44;22.15;;;9.45;;
73850;SDS011;62190;51.548;5.688;2023-10-31T01:51:12;21.23;;;9.63;;
73850;SDS011;62190;51.548;5.688;2023-10-31T01:53:40;26.27;;;12.05;;
73850;SDS011;62190;51.548;5.688;2023-10-31T01:56:08;24.37;;;10.40;;
73850;SDS011;62190;51.548;5.688;2023-10-31T01:58:36;27.67;;;11.63;;
73850;SDS011;62190;51.548;5.688;2023-10-31T02:01:05;25.90;;;11.00;;
73850;SDS011;62190;51.548;5.688;2023-10-31T02:03:32;34.18;;;12.33;;
73850;SDS011;62190;51.548;5.688;2023-10-31T02:06:00;27.58;;;14.20;;
73850;SDS011;62190;51.548;5.688;2023-10-31T02:08:27;29.07;;;13.48;;
73850;SDS011;62190;51.548;5.688;2023-10-31T02:10:55;30.80;;;13.90;;
73850;SDS011;62190;51.548;5.688;2023-10-31T02:13:22;29.07;;;14.00;;
73850;SDS011;62190;51.548;5.688;2023-10-31T02:15:49;34.27;;;14.13;;
73850;SDS011;62190;51.548;5.688;2023-10-31T02:18:17;30.90;;;14.63;;
73850;SDS011;62190;51.548;5.688;2023-10-31T02:20:44;34.45;;;15.70;;
73850;SDS011;62190;51.548;5.688;2023-10-31T02:23:11;32.90;;;15.88;;
73850;SDS011;62190;51.548;5.688;2023-10-31T02:25:42;26.70;;;14.35;;
73850;SDS011;62190;51.548;5.688;2023-10-31T02:28:09;40.08;;;17.40;;
73850;SDS011;62190;51.548;5.688;2023-10-31T02:30:36;35.90;;;16.02;;
73850;SDS011;62190;51.548;5.688;2023-10-31T02:33:04;34.92;;;16.20;;
73850;SDS011;62190;51.548;5.688;2023-10-31T02:35:31;37.00;;;16.42;;
73850;SDS011;62190;51.548;5.688;2023-10-31T02:37:59;33.90;;;16.10;;
73850;SDS011;62190;51.548;5.688;2023-10-31T02:40:26;39.90;;;16.82;;
73850;SDS011;62190;51.548;5.688;2023-10-31T02:42:53;39.92;;;16.73;;
73850;SDS011;62190;51.548;5.688;2023-10-31T02:45:21;35.25;;;15.90;;
73850;SDS011;62190;51.548;5.688;2023-10-31T02:47:48;35.35;;;16.00;;
73850;SDS011;62190;51.548;5.688;2023-10-31T02:50:15;32.85;;;15.83;;
73850;SDS011;62190;51.548;5.688;2023-10-31T02:52:43;37.93;;;16.93;;
73850;SDS011;62190;51.548;5.688;2023-10-31T02:55:12;34.38;;;15.83;;
73850;SDS011;62190;51.548;5.688;2023-10-31T02:57:39;30.90;;;14.98;;
73850;SDS011;62190;51.548;5.688;2023-10-31T03:00:07;33.65;;;15.48;;
73850;SDS011;62190;51.548;5.688;2023-10-31T03:02:36;39.30;;;15.48;;
73850;SDS011;62190;51.548;5.688;2023-10-31T03:05:05;36.73;;;16.48;;
73850;SDS011;62190;51.548;5.688;2023-10-31T03:07:34;40.73;;;15.45;;
73850;SDS011;62190;51.548;5.688;2023-10-31T03:10:01;35.85;;;15.05;;
73850;SDS011;62190;51.548;5.688;2023-10-31T03:12:31;35.73;;;17.07;;
73850;SDS011;62190;51.548;5.688;2023-10-31T03:15:02;44.85;;;17.27;;
73850;SDS011;62190;51.548;5.688;2023-10-31T03:17:29;37.20;;;16.27;;
73850;SDS011;62190;51.548;5.688;2023-10-31T03:19:57;37.10;;;17.35;;
73850;SDS011;62190;51.548;5.688;2023-10-31T03:22:24;37.85;;;15.68;;
73850;SDS011;62190;51.548;5.688;2023-10-31T03:24:53;35.30;;;16.70;;
73850;SDS011;62190;51.548;5.688;2023-10-31T03:27:20;35.92;;;16.75;;
73850;SDS011;62190;51.548;5.688;2023-10-31T03:29:48;31.50;;;16.77;;
73850;SDS011;62190;51.548;5.688;2023-10-31T03:32:17;35.88;;;17.20;;
73850;SDS011;62190;51.548;5.688;2023-10-31T03:34:44;35.45;;;16.20;;
73850;SDS011;62190;51.548;5.688;2023-10-31T03:37:11;37.70;;;16.67;;
73850;SDS011;62190;51.548;5.688;2023-10-31T03:39:40;35.55;;;17.05;;
73850;SDS011;62190;51.548;5.688;2023-10-31T03:42:08;37.55;;;17.23;;
73850;SDS011;62190;51.548;5.688;2023-10-31T03:44:36;39.95;;;16.65;;
73850;SDS011;62190;51.548;5.688;2023-10-31T03:47:04;43.38;;;18.02;;
73850;SDS011;62190;51.548;5.688;2023-10-31T03:49:31;42.78;;;17.75;;
73850;SDS011;62190;51.548;5.688;2023-10-31T03:51:59;39.63;;;16.37;;
73850;SDS011;62190;51.548;5.688;2023-10-31T03:54:27;39.58;;;17.27;;
73850;SDS011;62190;51.548;5.688;2023-10-31T03:56:54;42.00;;;19.27;;
73850;SDS011;62190;51.548;5.688;2023-10-31T03:59:23;45.08;;;17.80;;
73850;SDS011;62190;51.548;5.688;2023-10-31T04:01:52;40.95;;;18.98;;
73850;SDS011;62190;51.548;5.688;2023-10-31T04:04:19;50.48;;;18.73;;
73850;SDS011;62190;51.548;5.688;2023-10-31T04:06:46;43.65;;;19.40;;
73850;SDS011;62190;51.548;5.688;2023-10-31T04:09:15;45.00;;;19.48;;
73850;SDS011;62190;51.548;5.688;2023-10-31T04:11:43;47.43;;;20.37;;
73850;SDS011;62190;51.548;5.688;2023-10-31T04:14:10;48.63;;;19.55;;
73850;SDS011;62190;51.548;5.688;2023-10-31T04:16:38;45.95;;;20.70;;
73850;SDS011;62190;51.548;5.688;2023-10-31T04:19:08;49.15;;;20.08;;
73850;SDS011;62190;51.548;5.688;2023-10-31T04:21:35;46.50;;;19.75;;
73850;SDS011;62190;51.548;5.688;2023-10-31T04:24:03;47.20;;;20.27;;
73850;SDS011;62190;51.548;5.688;2023-10-31T04:26:31;45.83;;;21.55;;
73850;SDS011;62190;51.548;5.688;2023-10-31T04:28:58;47.17;;;19.05;;
73850;SDS011;62190;51.548;5.688;2023-10-31T04:31:28;54.33;;;22.52;;
73850;SDS011;62190;51.548;5.688;2023-10-31T04:33:55;51.90;;;20.15;;
73850;SDS011;62190;51.548;5.688;2023-10-31T04:36:23;47.55;;;19.73;;
73850;SDS011;62190;51.548;5.688;2023-10-31T04:38:50;50.35;;;20.52;;
73850;SDS011;62190;51.548;5.688;2023-10-31T04:41:17;47.43;;;20.37;;
73850;SDS011;62190;51.548;5.688;2023-10-31T04:43:45;43.52;;;19.40;;
73850;SDS011;62190;51.548;5.688;2023-10-31T04:46:12;45.78;;;20.90;;
73850;SDS011;62190;51.548;5.688;2023-10-31T04:48:40;44.58;;;19.48;;
73850;SDS011;62190;51.548;5.688;2023-10-31T04:51:08;40.43;;;18.23;;
73850;SDS011;62190;51.548;5.688;2023-10-31T04:53:36;47.93;;;20.60;;
73850;SDS011;62190;51.548;5.688;2023-10-31T04:56:03;45.43;;;18.77;;
73850;SDS011;62190;51.548;5.688;2023-10-31T04:58:31;39.38;;;18.32;;
73850;SDS011;62190;51.548;5.688;2023-10-31T05:00:58;38.55;;;17.75;;
73850;SDS011;62190;51.548;5.688;2023-10-31T05:03:26;39.25;;;16.82;;
73850;SDS011;62190;51.548;5.688;2023-10-31T05:05:55;36.60;;;17.27;;
73850;SDS011;62190;51.548;5.688;2023-10-31T05:08:22;39.42;;;16.57;;
73850;SDS011;62190;51.548;5.688;2023-10-31T05:10:51;33.75;;;15.65;;
73850;SDS011;62190;51.548;5.688;2023-10-31T05:13:20;34.98;;;15.30;;
73850;SDS011;62190;51.548;5.688;2023-10-31T05:15:49;33.35;;;16.57;;
73850;SDS011;62190;51.548;5.688;2023-10-31T05:18:16;30.15;;;13.55;;
73850;SDS011;62190;51.548;5.688;2023-10-31T05:20:46;29.02;;;14.05;;
73850;SDS011;62190;51.548;5.688;2023-10-31T05:23:13;28.62;;;13.98;;
73850;SDS011;62190;51.548;5.688;2023-10-31T05:25:40;31.50;;;14.07;;
73850;SDS011;62190;51.548;5.688;2023-10-31T05:28:08;29.37;;;13.13;;
73850;SDS011;62190;51.548;5.688;2023-10-31T05:30:35;26.82;;;12.18;;
73850;SDS011;62190;51.548;5.688;2023-10-31T05:33:05;21.93;;;10.70;;
73850;SDS011;62190;51.548;5.688;2023-10-31T05:35:33;22.55;;;10.05;;
73850;SDS011;62190;51.548;5.688;2023-10-31T05:38:00;20.75;;;9.65;;
73850;SDS011;62190;51.548;5.688;2023-10-31T05:40:27;20.72;;;10.20;;
73850;SDS011;62190;51.548;5.688;2023-10-31T05:42:57;23.00;;;10.40;;
73850;SDS011;62190;51.548;5.688;2023-10-31T05:45:25;25.92;;;11.08;;
73850;SDS011;62190;51.548;5.688;2023-10-31T05:47:53;27.90;;;11.40;;
73850;SDS011;62190;51.548;5.688;2023-10-31T05:50:20;26.77;;;12.75;;
73850;SDS011;62190;51.548;5.688;2023-10-31T05:52:50;24.05;;;11.40;;
73850;SDS011;62190;51.548;5.688;2023-10-31T05:55:16;28.27;;;12.15;;
73850;SDS011;62190;51.548;5.688;2023-10-31T05:57:44;33.78;;;13.35;;
73850;SDS011;62190;51.548;5.688;2023-10-31T06:00:14;29.42;;;13.20;;
73850;SDS011;62190;51.548;5.688;2023-10-31T06:02:42;29.85;;;14.87;;
73850;SDS011;62190;51.548;5.688;2023-10-31T06:05:10;27.98;;;13.32;;
73850;SDS011;62190;51.548;5.688;2023-10-31T06:07:38;25.23;;;11.90;;
73850;SDS011;62190;51.548;5.688;2023-10-31T06:10:05;32.40;;;14.33;;
73850;SDS011;62190;51.548;5.688;2023-10-31T06:12:33;30.25;;;14.95;;
73850;SDS011;62190;51.548;5.688;2023-10-31T06:15:01;34.05;;;15.72;;
73850;SDS011;62190;51.548;5.688;2023-10-31T06:17:28;38.15;;;17.37;;
73850;SDS011;62190;51.548;5.688;2023-10-31T06:19:57;32.45;;;14.50;;
73850;SDS011;62190;51.548;5.688;2023-10-31T06:22:25;35.23;;;16.48;;
73850;SDS011;62190;51.548;5.688;2023-10-31T06:24:52;28.42;;;15.15;;
73850;SDS011;62190;51.548;5.688;2023-10-31T06:27:20;29.37;;;14.70;;
73850;SDS011;62190;51.548;5.688;2023-10-31T06:29:47;31.50;;;14.35;;
73850;SDS011;62190;51.548;5.688;2023-10-31T06:32:15;34.43;;;15.65;;
73850;SDS011;62190;51.548;5.688;2023-10-31T06:34:42;30.30;;;13.95;;
73850;SDS011;62190;51.548;5.688;2023-10-31T06:37:09;30.20;;;14.55;;
73850;SDS011;62190;51.548;5.688;2023-10-31T06:39:37;29.90;;;13.03;;
73850;SDS011;62190;51.548;5.688;2023-10-31T06:42:04;26.52;;;14.15;;
73850;SDS011;62190;51.548;5.688;2023-10-31T06:44:32;26.97;;;13.32;;
73850;SDS011;62190;51.548;5.688;2023-10-31T06:47:01;30.00;;;12.70;;
73850;SDS011;62190;51.548;5.688;2023-10-31T06:49:28;26.37;;;12.80;;
73850;SDS011;62190;51.548;5.688;2023-10-31T06:51:55;22.73;;;11.40;;
73850;SDS011;62190;51.548;5.688;2023-10-31T06:54:22;29.52;;;12.93;;
73850;SDS011;62190;51.548;5.688;2023-10-31T06:56:50;22.65;;;12.43;;
73850;SDS011;62190;51.548;5.688;2023-10-31T06:59:17;24.65;;;13.30;;
73850;SDS011;62190;51.548;5.688;2023-10-31T07:01:44;27.98;;;13.15;;
73850;SDS011;62190;51.548;5.688;2023-10-31T07:04:12;32.60;;;14.30;;
73850;SDS011;62190;51.548;5.688;2023-10-31T07:06:39;24.07;;;12.43;;
73850;SDS011;62190;51.548;5.688;2023-10-31T07:09:07;33.33;;;13.80;;
73850;SDS011;62190;51.548;5.688;2023-10-31T07:11:35;28.30;;;13.35;;
73850;SDS011;62190;51.548;5.688;2023-10-31T07:14:02;28.05;;;13.70;;
73850;SDS011;62190;51.548;5.688;2023-10-31T07:16:31;24.90;;;13.28;;
73850;SDS011;62190;51.548;5.688;2023-10-31T07:18:58;25.00;;;12.45;;
73850;SDS011;62190;51.548;5.688;2023-10-31T07:21:26;27.85;;;14.45;;
73850;SDS011;62190;51.548;5.688;2023-10-31T07:23:53;26.50;;;13.75;;
73850;SDS011;62190;51.548;5.688;2023-10-31T07:26:21;34.73;;;14.33;;
73850;SDS011;62190;51.548;5.688;2023-10-31T07:28:49;30.02;;;14.47;;
73850;SDS011;62190;51.548;5.688;2023-10-31T07:33:49;27.45;;;13.90;;
73850;SDS011;62190;51.548;5.688;2023-10-31T07:36:16;29.10;;;14.18;;
73850;SDS011;62190;51.548;5.688;2023-10-31T07:38:44;27.32;;;12.47;;
73850;SDS011;62190;51.548;5.688;2023-10-31T07:41:11;26.95;;;12.95;;
73850;SDS011;62190;51.548;5.688;2023-10-31T07:43:38;21.80;;;12.10;;
73850;SDS011;62190;51.548;5.688;2023-10-31T07:46:06;23.55;;;12.37;;
73850;SDS011;62190;51.548;5.688;2023-10-31T07:48:33;23.75;;;12.07;;
73850;SDS011;62190;51.548;5.688;2023-10-31T07:51:00;19.65;;;10.90;;
73850;SDS011;62190;51.548;5.688;2023-10-31T07:53:28;19.23;;;11.08;;
73850;SDS011;62190;51.548;5.688;2023-10-31T07:55:55;23.75;;;11.80;;
73850;SDS011;62190;51.548;5.688;2023-10-31T07:58:22;22.30;;;10.55;;
73850;SDS011;62190;51.548;5.688;2023-10-31T08:00:50;21.85;;;10.28;;
73850;SDS011;62190;51.548;5.688;2023-10-31T08:03:17;23.40;;;11.75;;
73850;SDS011;62190;51.548;5.688;2023-10-31T08:05:44;19.00;;;9.80;;
73850;SDS011;62190;51.548;5.688;2023-10-31T08:08:12;16.60;;;9.85;;
73850;SDS011;62190;51.548;5.688;2023-10-31T08:10:39;17.67;;;9.50;;
73850;SDS011;62190;51.548;5.688;2023-10-31T08:13:06;17.27;;;9.65;;
73850;SDS011;62190;51.548;5.688;2023-10-31T08:15:33;17.70;;;9.50;;
73850;SDS011;62190;51.548;5.688;2023-10-31T08:18:01;22.60;;;9.83;;
73850;SDS011;62190;51.548;5.688;2023-10-31T08:20:28;19.50;;;10.58;;
73850;SDS011;62190;51.548;5.688;2023-10-31T08:22:57;20.02;;;10.32;;
73850;SDS011;62190;51.548;5.688;2023-10-31T08:25:24;21.62;;;11.88;;
73850;SDS011;62190;51.548;5.688;2023-10-31T08:27:51;18.60;;;10.28;;
73850;SDS011;62190;51.548;5.688;2023-10-31T08:30:19;23.55;;;12.15;;
73850;SDS011;62190;51.548;5.688;2023-10-31T08:32:46;21.48;;;11.53;;
73850;SDS011;62190;51.548;5.688;2023-10-31T08:35:13;21.73;;;11.93;;
73850;SDS011;62190;51.548;5.688;2023-10-31T08:37:41;23.20;;;13.55;;
73850;SDS011;62190;51.548;5.688;2023-10-31T08:40:08;22.77;;;13.55;;
73850;SDS011;62190;51.548;5.688;2023-10-31T08:42:36;24.85;;;12.35;;
73850;SDS011;62190;51.548;5.688;2023-10-31T08:45:03;23.70;;;12.55;;
73850;SDS011;62190;51.548;5.688;2023-10-31T08:47:31;24.70;;;12.45;;
73850;SDS011;62190;51.548;5.688;2023-10-31T08:49:58;25.10;;;13.80;;
73850;SDS011;62190;51.548;5.688;2023-10-31T08:52:25;20.50;;;12.03;;
73850;SDS011;62190;51.548;5.688;2023-10-31T08:54:53;26.90;;;13.05;;
73850;SDS011;62190;51.548;5.688;2023-10-31T08:57:22;25.85;;;13.20;;
73850;SDS011;62190;51.548;5.688;2023-10-31T08:59:49;22.90;;;12.00;;
73850;SDS011;62190;51.548;5.688;2023-10-31T09:02:16;26.62;;;11.73;;
73850;SDS011;62190;51.548;5.688;2023-10-31T09:04:44;22.67;;;11.85;;
73850;SDS011;62190;51.548;5.688;2023-10-31T09:07:11;24.30;;;12.28;;
73850;SDS011;62190;51.548;5.688;2023-10-31T09:09:38;23.52;;;11.85;;
73850;SDS011;62190;51.548;5.688;2023-10-31T09:12:06;20.05;;;9.63;;
73850;SDS011;62190;51.548;5.688;2023-10-31T09:14:33;23.05;;;11.50;;
73850;SDS011;62190;51.548;5.688;2023-10-31T09:17:02;20.70;;;11.40;;
73850;SDS011;62190;51.548;5.688;2023-10-31T09:19:29;20.20;;;9.60;;
73850;SDS011;62190;51.548;5.688;2023-10-31T09:21:57;20.48;;;10.13;;
73850;SDS011;62190;51.548;5.688;2023-10-31T09:24:24;18.98;;;10.50;;
73850;SDS011;62190;51.548;5.688;2023-10-31T09:26:51;18.25;;;8.83;;
73850;SDS011;62190;51.548;5.688;2023-10-31T09:29:18;13.58;;;8.00;;
73850;SDS011;62190;51.548;5.688;2023-10-31T09:31:46;14.53;;;8.13;;
73850;SDS011;62190;51.548;5.688;2023-10-31T09:34:13;17.23;;;8.60;;
73850;SDS011;62190;51.548;5.688;2023-10-31T09:36:41;16.25;;;7.58;;
73850;SDS011;62190;51.548;5.688;2023-10-31T09:39:11;16.90;;;8.40;;
73850;SDS011;62190;51.548;5.688;2023-10-31T09:41:38;15.18;;;7.85;;
73850;SDS011;62190;51.548;5.688;2023-10-31T09:44:05;14.70;;;7.08;;
73850;SDS011;62190;51.548;5.688;2023-10-31T09:46:36;11.88;;;7.15;;
73850;SDS011;62190;51.548;5.688;2023-10-31T09:49:04;15.20;;;8.08;;
73850;SDS011;62190;51.548;5.688;2023-10-31T09:51:31;16.30;;;7.55;;
73850;SDS011;62190;51.548;5.688;2023-10-31T09:53:59;11.75;;;6.50;;
73850;SDS011;62190;51.548;5.688;2023-10-31T09:56:29;12.65;;;6.83;;
73850;SDS011;62190;51.548;5.688;2023-10-31T09:58:58;17.25;;;7.10;;
73850;SDS011;62190;51.548;5.688;2023-10-31T10:01:25;13.28;;;7.20;;
73850;SDS011;62190;51.548;5.688;2023-10-31T10:03:53;12.43;;;7.08;;
73850;SDS011;62190;51.548;5.688;2023-10-31T10:06:21;12.93;;;6.08;;
73850;SDS011;62190;51.548;5.688;2023-10-31T10:08:49;11.75;;;6.53;;
73850;SDS011;62190;51.548;5.688;2023-10-31T10:11:16;11.18;;;6.37;;
73850;SDS011;62190;51.548;5.688;2023-10-31T10:13:44;11.10;;;6.53;;
73850;SDS011;62190;51.548;5.688;2023-10-31T10:16:11;18.10;;;6.80;;
73850;SDS011;62190;51.548;5.688;2023-10-31T10:18:39;13.13;;;7.12;;
73850;SDS011;62190;51.548;5.688;2023-10-31T10:21:07;11.18;;;6.30;;
73850;SDS011;62190;51.548;5.688;2023-10-31T10:23:35;11.43;;;6.70;;
73850;SDS011;62190;51.548;5.688;2023-10-31T10:26:02;15.88;;;7.58;;
73850;SDS011;62190;51.548;5.688;2023-10-31T10:28:30;16.75;;;7.22;;
73850;SDS011;62190;51.548;5.688;2023-10-31T10:30:59;12.35;;;6.53;;
73850;SDS011;62190;51.548;5.688;2023-10-31T10:33:26;15.20;;;6.42;;
73850;SDS011;62190;51.548;5.688;2023-10-31T10:35:54;12.50;;;6.20;;
73850;SDS011;62190;51.548;5.688;2023-10-31T10:38:22;12.65;;;6.35;;
73850;SDS011;62190;51.548;5.688;2023-10-31T10:40:50;13.75;;;6.22;;
73850;SDS011;62190;51.548;5.688;2023-10-31T10:43:23;9.88;;;5.85;;
73850;SDS011;62190;51.548;5.688;2023-10-31T10:45:55;10.72;;;5.70;;
73850;SDS011;62190;51.548;5.688;2023-10-31T10:48:23;11.12;;;5.40;;
73850;SDS011;62190;51.548;5.688;2023-10-31T10:51:05;8.38;;;4.62;;
73850;SDS011;62190;51.548;5.688;2023-10-31T10:53:42;7.92;;;4.83;;
73850;SDS011;62190;51.548;5.688;2023-10-31T10:56:13;11.75;;;5.17;;
73850;SDS011;62190;51.548;5.688;2023-10-31T10:58:45;11.05;;;5.78;;
73850;SDS011;62190;51.548;5.688;2023-10-31T11:01:17;11.80;;;6.50;;
73850;SDS011;62190;51.548;5.688;2023-10-31T11:03:46;10.32;;;5.08;;
73850;SDS011;62190;51.548;5.688;2023-10-31T11:06:14;9.33;;;5.12;;
73850;SDS011;62190;51.548;5.688;2023-10-31T11:08:41;10.15;;;4.97;;
73850;SDS011;62190;51.548;5.688;2023-10-31T11:11:09;10.23;;;5.33;;
73850;SDS011;62190;51.548;5.688;2023-10-31T11:13:37;12.88;;;5.12;;
73850;SDS011;62190;51.548;5.688;2023-10-31T11:16:09;7.92;;;5.45;;
73850;SDS011;62190;51.548;5.688;2023-10-31T11:18:35;8.33;;;5.00;;
73850;SDS011;62190;51.548;5.688;2023-10-31T11:21:02;9.68;;;5.50;;
73850;SDS011;62190;51.548;5.688;2023-10-31T11:23:30;13.38;;;5.37;;
73850;SDS011;62190;51.548;5.688;2023-10-31T11:25:57;9.00;;;4.90;;
73850;SDS011;62190;51.548;5.688;2023-10-31T11:28:25;12.78;;;6.33;;
73850;SDS011;62190;51.548;5.688;2023-10-31T11:30:52;8.55;;;4.60;;
73850;SDS011;62190;51.548;5.688;2023-10-31T11:33:22;11.90;;;5.20;;
73850;SDS011;62190;51.548;5.688;2023-10-31T11:35:50;9.53;;;4.50;;
73850;SDS011;62190;51.548;5.688;2023-10-31T11:38:28;11.93;;;5.30;;
73850;SDS011;62190;51.548;5.688;2023-10-31T11:43:20;8.43;;;4.42;;
73850;SDS011;62190;51.548;5.688;2023-10-31T11:45:49;13.13;;;5.37;;
73850;SDS011;62190;51.548;5.688;2023-10-31T11:48:16;14.43;;;4.70;;
73850;SDS011;62190;51.548;5.688;2023-10-31T11:50:43;11.22;;;4.75;;
73850;SDS011;62190;51.548;5.688;2023-10-31T11:53:11;8.23;;;3.77;;
73850;SDS011;62190;51.548;5.688;2023-10-31T11:55:45;10.05;;;4.30;;
73850;SDS011;62190;51.548;5.688;2023-10-31T11:58:13;9.63;;;4.70;;
73850;SDS011;62190;51.548;5.688;2023-10-31T12:00:51;9.35;;;4.37;;
73850;SDS011;62190;51.548;5.688;2023-10-31T12:03:16;8.23;;;4.33;;
73850;SDS011;62190;51.548;5.688;2023-10-31T12:05:57;8.90;;;4.33;;
73850;SDS011;62190;51.548;5.688;2023-10-31T12:08:37;6.50;;;3.50;;
73850;SDS011;62190;51.548;5.688;2023-10-31T12:11:12;6.83;;;4.05;;
73850;SDS011;62190;51.548;5.688;2023-10-31T12:13:51;9.23;;;3.58;;
73850;SDS011;62190;51.548;5.688;2023-10-31T12:16:26;4.22;;;2.60;;
73850;SDS011;62190;51.548;5.688;2023-10-31T12:18:55;7.80;;;3.15;;
73850;SDS011;62190;51.548;5.688;2023-10-31T12:21:40;6.28;;;3.80;;
73850;SDS011;62190;51.548;5.688;2023-10-31T12:24:10;6.03;;;3.12;;
73850;SDS011;62190;51.548;5.688;2023-10-31T12:26:39;8.53;;;3.22;;
73850;SDS011;62190;51.548;5.688;2023-10-31T12:29:11;5.45;;;3.05;;
73850;SDS011;62190;51.548;5.688;2023-10-31T12:31:49;5.60;;;2.90;;
73850;SDS011;62190;51.548;5.688;2023-10-31T12:34:18;5.60;;;2.65;;
73850;SDS011;62190;51.548;5.688;2023-10-31T12:36:47;5.92;;;2.90;;
73850;SDS011;62190;51.548;5.688;2023-10-31T12:39:18;3.72;;;2.58;;
73850;SDS011;62190;51.548;5.688;2023-10-31T12:41:47;5.60;;;2.67;;
73850;SDS011;62190;51.548;5.688;2023-10-31T12:44:17;5.28;;;1.85;;
73850;SDS011;62190;51.548;5.688;2023-10-31T12:46:45;2.92;;;2.02;;
73850;SDS011;62190;51.548;5.688;2023-10-31T12:49:13;3.83;;;1.87;;
73850;SDS011;62190;51.548;5.688;2023-10-31T12:52:00;2.50;;;1.40;;
73850;SDS011;62190;51.548;5.688;2023-10-31T12:54:36;4.50;;;1.98;;
73850;SDS011;62190;51.548;5.688;2023-10-31T12:57:09;2.37;;;1.17;;
73850;SDS011;62190;51.548;5.688;2023-10-31T12:59:34;6.22;;;1.25;;
73850;SDS011;62190;51.548;5.688;2023-10-31T13:02:03;3.30;;;1.25;;
73850;SDS011;62190;51.548;5.688;2023-10-31T13:04:32;4.67;;;0.90;;
73850;SDS011;62190;51.548;5.688;2023-10-31T13:07:00;1.25;;;1.10;;
73850;SDS011;62190;51.548;5.688;2023-10-31T13:09:37;1.52;;;0.75;;
73850;SDS011;62190;51.548;5.688;2023-10-31T13:12:07;2.90;;;0.70;;
73850;SDS011;62190;51.548;5.688;2023-10-31T13:14:37;7.33;;;0.57;;
73850;SDS011;62190;51.548;5.688;2023-10-31T13:17:05;2.92;;;0.53;;
73850;SDS011;62190;51.548;5.688;2023-10-31T13:19:32;4.03;;;0.90;;
73850;SDS011;62190;51.548;5.688;2023-10-31T13:21:59;0.40;;;0.40;;
73850;SDS011;62190;51.548;5.688;2023-10-31T13:24:26;1.37;;;0.80;;
73850;SDS011;62190;51.548;5.688;2023-10-31T13:26:54;0.93;;;0.62;;
73850;SDS011;62190;51.548;5.688;2023-10-31T13:29:21;1.87;;;0.60;;
73850;SDS011;62190;51.548;5.688;2023-10-31T13:31:50;4.35;;;0.98;;
73850;SDS011;62190;51.548;5.688;2023-10-31T13:34:18;1.27;;;0.80;;
73850;SDS011;62190;51.548;5.688;2023-10-31T13:36:45;3.33;;;0.72;;
73850;SDS011;62190;51.548;5.688;2023-10-31T13:39:12;3.10;;;0.90;;
73850;SDS011;62190;51.548;5.688;2023-10-31T13:41:39;1.50;;;0.95;;
73850;SDS011;62190;51.548;5.688;2023-10-31T13:44:07;2.60;;;1.02;;
73850;SDS011;62190;51.548;5.688;2023-10-31T13:46:34;2.45;;;1.15;;
73850;SDS011;62190;51.548;5.688;2023-10-31T13:49:01;3.10;;;1.22;;
73850;SDS011;62190;51.548;5.688;2023-10-31T13:51:29;1.37;;;1.10;;
73850;SDS011;62190;51.548;5.688;2023-10-31T13:53:56;3.65;;;0.80;;
73850;SDS011;62190;51.548;5.688;2023-10-31T13:56:23;1.52;;;0.90;;
73850;SDS011;62190;51.548;5.688;2023-10-31T13:58:51;1.17;;;0.70;;
73850;SDS011;62190;51.548;5.688;2023-10-31T14:01:18;2.30;;;0.85;;
73850;SDS011;62190;51.548;5.688;2023-10-31T14:03:47;3.58;;;1.12;;
73850;SDS011;62190;51.548;5.688;2023-10-31T14:06:15;2.33;;;0.88;;
73850;SDS011;62190;51.548;5.688;2023-10-31T14:08:43;2.12;;;1.02;;
73850;SDS011;62190;51.548;5.688;2023-10-31T14:11:10;1.92;;;0.82;;
73850;SDS011;62190;51.548;5.688;2023-10-31T14:13:38;2.45;;;0.68;;
73850;SDS011;62190;51.548;5.688;2023-10-31T14:16:06;4.95;;;0.78;;
73850;SDS011;62190;51.548;5.688;2023-10-31T14:18:34;2.30;;;1.15;;
73850;SDS011;62190;51.548;5.688;2023-10-31T14:21:01;1.98;;;1.00;;
73850;SDS011;62190;51.548;5.688;2023-10-31T14:23:28;1.62;;;0.80;;
73850;SDS011;62190;51.548;5.688;2023-10-31T14:25:56;2.10;;;0.93;;
73850;SDS011;62190;51.548;5.688;2023-10-31T14:28:24;1.85;;;1.00;;
73850;SDS011;62190;51.548;5.688;2023-10-31T14:30:51;1.22;;;0.80;;
73850;SDS011;62190;51.548;5.688;2023-10-31T14:33:19;3.77;;;1.10;;
73850;SDS011;62190;51.548;5.688;2023-10-31T14:35:46;2.30;;;1.07;;
73850;SDS011;62190;51.548;5.688;2023-10-31T14:38:14;4.37;;;0.70;;
73850;SDS011;62190;51.548;5.688;2023-10-31T14:40:41;5.55;;;0.98;;